Flight Track Log - Related Links

Times and Time Zones

All times are in EDT time to prevent confusion due to time zone crossing. See the CSJ405 flight status page for this flight to view local times or setup timezone preferences in your user account.

Time Position Orientation Groundspeed Altitude Reporting Facility
EDT Latitude Longitude Course Direction KTS MPH feet Rate Location/Type
Wed 08:26:30 PM 41.1000 -74.5833 316° Northwest 173 199 3,900  Level New York TRACON
Wed 08:28:00 PM 41.1923 -74.7178 312° West  Level Estimated
Wed 08:35:00 PM 41.6212 -75.3502 312° West  Level Estimated
Wed 08:36:00 PM 41.6822 -75.4412 312° West  Level Estimated
Wed 08:37:00 PM 41.7134 -75.4944 308° West  Level FlightAware Approximate
Wed 08:38:00 PM 41.7476 -75.5446 313° West  Level FlightAware Approximate
Wed 08:39:00 PM 41.7820 -75.5942 313° West  Level FlightAware Approximate
Wed 08:40:00 PM 41.8164 -75.6439 313° West  Level FlightAware Approximate
Wed 08:41:00 PM 41.8507 -75.6936 313° West  Level FlightAware Approximate
Wed 08:42:00 PM 41.8843 -75.7442 311° West  Level FlightAware Approximate
Wed 08:43:00 PM 41.9173 -75.7957 311° West  Level FlightAware Approximate
Wed 08:44:00 PM 41.9502 -75.8472 311° West  Level FlightAware Approximate
Wed 08:45:00 PM 41.9832 -75.8988 311° West  Level FlightAware Approximate
Wed 08:46:00 PM 42.0160 -75.9504 311° West  Level FlightAware Approximate
Wed 08:47:00 PM 42.0489 -76.0021 311° West  Level FlightAware Approximate
Wed 08:48:00 PM 42.0817 -76.0538 311° West  Level FlightAware Approximate
Wed 08:49:00 PM 42.1146 -76.1056 311° West  Level FlightAware Approximate
Wed 08:50:00 PM 42.1474 -76.1575 310° West  Level FlightAware Approximate
Wed 08:51:00 PM 42.1801 -76.2094 310° West  Level FlightAware Approximate
Wed 08:52:00 PM 42.2129 -76.2613 310° West  Level FlightAware Approximate
Wed 08:53:00 PM 42.2456 -76.3133 310° West  Level FlightAware Approximate
Wed 08:54:00 PM 42.2783 -76.3654 310° West  Level FlightAware Approximate
Wed 08:55:00 PM 42.3110 -76.4175 310° West  Level FlightAware Approximate
Wed 08:56:00 PM 42.3436 -76.4697 310° West  Level FlightAware Approximate
Wed 08:57:00 PM 42.3762 -76.5219 310° West  Level FlightAware Approximate
Wed 08:58:00 PM 42.4096 -76.5733 312° West  Level FlightAware Approximate
Wed 08:59:00 PM 42.4516 -76.6095 328° Northwest  Level FlightAware Approximate
Wed 09:00:00 PM 42.4936 -76.6458 328° Northwest  Level FlightAware Approximate
Wed 09:01:00 PM 42.5356 -76.6821 328° Northwest  Level FlightAware Approximate
Wed 09:02:00 PM 42.5777 -76.7184 328° Northwest  Level FlightAware Approximate
Wed 09:03:00 PM 42.6084 -76.7717 307° West  Level Estimated
Wed 09:04:00 PM 42.6406 -76.8233 310° West  Level FlightAware Approximate
Wed 09:05:00 PM 42.6729 -76.8749 310° West  Level FlightAware Approximate
Wed 09:06:00 PM 42.7051 -76.9266 310° West  Level FlightAware Approximate
Wed 09:07:00 PM 42.7373 -76.9784 310° West  Level FlightAware Approximate
Wed 09:08:00 PM 42.7695 -77.0302 310° West  Level FlightAware Approximate
Wed 09:09:00 PM 42.8016 -77.0820 310° West  Level FlightAware Approximate
Wed 09:10:00 PM 42.8312 -77.1366 300° West  Level Estimated
Wed 09:11:00 PM 42.8577 -77.1942 302° West  Level FlightAware Approximate
Wed 09:11:57 PM 42.6406 -76.6342 304° West 176 203 8,000  Level Cleveland Center
Wed 09:12:00 PM 42.8876 -77.2485 324° Northwest  Level Estimated
Wed 09:12:27 PM 42.6544 -76.6672 300° West 177 204 7,900  Level Cleveland Center
Wed 09:13:00 PM 42.9176 -77.3029 304° West  Level Estimated
Wed 09:13:22 PM 42.6767 -76.7139 303° West 169 194 7,900  Level Cleveland Center
Wed 09:14:00 PM 42.9475 -77.3573 304° West  Level Estimated
Wed 09:14:22 PM 42.7014 -76.7689 301° West 162 186 7,900  Level Cleveland Center
Wed 09:15:00 PM 42.9773 -77.4118 304° West  Level Estimated
Wed 09:15:29 PM 42.7283 -76.8208 305° West 160 184 7,900  Level Cleveland Center
Wed 09:16:00 PM 43.0072 -77.4663 309° West  Level Estimated
Wed 09:16:29 PM 42.7508 -76.8761 299° West 173 199 7,900  Level Cleveland Center
Wed 09:17:00 PM 43.0370 -77.5209 304° West  Level Estimated
Wed 09:17:30 PM 42.7758 -76.9369 299° West 171 197 7,900  Level Cleveland Center
Wed 09:18:31 PM 42.8003 -76.9892 303° West 173 199 7,900 -331 Level Cleveland Center
Wed 09:19:37 PM 42.8214 -77.0644 291° West 191 220 7,200 -803 Descending Cleveland Center
Wed 09:20:38 PM 42.8319 -77.1347 282° West 188 216 6,200 -836 Descending Cleveland Center
Wed 09:21:39 PM 42.8483 -77.1989 289° West 185 213 5,500 -496 Descending Cleveland Center
Wed 09:22:39 PM 42.8669 -77.2658 291° West 178 205 5,200 -522 Descending Cleveland Center
Wed 09:23:34 PM 42.8872 -77.3214 296° West 180 207 4,500 -606 Descending Cleveland Center
Wed 09:24:28 PM 42.9056 -77.3800 293° West 191 220 4,100 -209 Descending Cleveland Center
Wed 09:25:29 PM 42.9239 -77.4417 292° West 177 204 4,100 -298 Level Cleveland Center
Wed 09:26:29 PM 42.9425 -77.5058 292° West 179 206 3,500 -730 Descending Cleveland Center
Wed 09:27:24 PM 42.9567 -77.5703 287° West 194 223 2,700 -545 Descending Cleveland Center
Wed 09:28:19 PM 42.9686 -77.6350 284° West 179 206 2,500 -104 Descending Cleveland Center
Wed 09:29:19 PM 42.9828 -77.6942 288° West 173 199 2,500  Level Cleveland Center

Login

Don't have an account? Register now (free) for customized features, flight alerts, and more!